sensor_id;sensor_type;location;lat;lon;timestamp;pressure;altitude;pressure_sealevel;temperature;humidity
17635;BME280;8936;49.010;12.120;2023-07-24T00:01:29;97342.13;;;27.34;50.00
17635;BME280;8936;49.010;12.120;2023-07-24T00:03:56;97337.84;;;27.40;49.89
17635;BME280;8936;49.010;12.120;2023-07-24T00:06:24;97320.91;;;27.24;49.86
17635;BME280;8936;49.010;12.120;2023-07-24T00:08:50;97313.13;;;26.57;50.81
17635;BME280;8936;49.010;12.120;2023-07-24T00:11:18;97311.78;;;26.30;51.52
17635;BME280;8936;49.010;12.120;2023-07-24T00:13:44;97298.28;;;26.58;51.33
17635;BME280;8936;49.010;12.120;2023-07-24T00:16:11;97284.75;;;26.83;50.90
17635;BME280;8936;49.010;12.120;2023-07-24T00:18:37;97280.91;;;27.05;50.49
17635;BME280;8936;49.010;12.120;2023-07-24T00:21:03;97274.31;;;27.17;50.31
17635;BME280;8936;49.010;12.120;2023-07-24T00:23:30;97267.28;;;27.23;50.33
17635;BME280;8936;49.010;12.120;2023-07-24T00:25:56;97261.81;;;27.26;50.12
17635;BME280;8936;49.010;12.120;2023-07-24T00:28:24;97252.41;;;27.31;50.26
17635;BME280;8936;49.010;12.120;2023-07-24T00:30:50;97246.53;;;27.29;50.30
17635;BME280;8936;49.010;12.120;2023-07-24T00:33:17;97246.91;;;27.24;50.29
17635;BME280;8936;49.010;12.120;2023-07-24T00:35:43;97248.47;;;27.18;50.36
17635;BME280;8936;49.010;12.120;2023-07-24T00:38:09;97253.94;;;27.18;50.28
17635;BME280;8936;49.010;12.120;2023-07-24T00:40:36;97249.25;;;27.22;50.38
17635;BME280;8936;49.010;12.120;2023-07-24T00:43:02;97250.06;;;27.26;50.48
17635;BME280;8936;49.010;12.120;2023-07-24T00:45:30;97257.50;;;27.25;50.29
17635;BME280;8936;49.010;12.120;2023-07-24T00:47:56;97266.50;;;27.26;50.43
17635;BME280;8936;49.010;12.120;2023-07-24T00:50:23;97278.63;;;27.25;50.33
17635;BME280;8936;49.010;12.120;2023-07-24T00:52:49;97287.25;;;27.20;50.59
17635;BME280;8936;49.010;12.120;2023-07-24T00:55:16;97294.69;;;27.23;50.57
17635;BME280;8936;49.010;12.120;2023-07-24T00:57:43;97300.56;;;27.21;50.50
17635;BME280;8936;49.010;12.120;2023-07-24T01:00:10;97301.13;;;26.79;50.98
17635;BME280;8936;49.010;12.120;2023-07-24T01:02:38;97290.50;;;26.67;51.55
17635;BME280;8936;49.010;12.120;2023-07-24T01:05:04;97299.91;;;26.77;51.55
17635;BME280;8936;49.010;12.120;2023-07-24T01:07:31;97299.25;;;26.91;51.27
17635;BME280;8936;49.010;12.120;2023-07-24T01:09:57;97286.69;;;26.83;51.30
17635;BME280;8936;49.010;12.120;2023-07-24T01:12:26;97267.94;;;26.92;51.29
17635;BME280;8936;49.010;12.120;2023-07-24T01:14:57;97264.06;;;27.00;51.03
17635;BME280;8936;49.010;12.120;2023-07-24T01:17:28;97244.28;;;26.62;51.56
17635;BME280;8936;49.010;12.120;2023-07-24T01:19:58;97252.75;;;26.36;51.88
17635;BME280;8936;49.010;12.120;2023-07-24T01:22:28;97274.66;;;25.89;52.81
17635;BME280;8936;49.010;12.120;2023-07-24T01:25:04;97320.34;;;25.14;54.09
17635;BME280;8936;49.010;12.120;2023-07-24T01:27:32;97343.13;;;24.69;56.59
17635;BME280;8936;49.010;12.120;2023-07-24T01:29:58;97345.31;;;24.60;58.21
17635;BME280;8936;49.010;12.120;2023-07-24T01:32:25;97340.91;;;24.79;57.81
17635;BME280;8936;49.010;12.120;2023-07-24T01:34:51;97344.53;;;25.46;56.07
17635;BME280;8936;49.010;12.120;2023-07-24T01:37:18;97324.44;;;25.64;55.22
17635;BME280;8936;49.010;12.120;2023-07-24T01:39:46;97327.44;;;25.52;55.74
17635;BME280;8936;49.010;12.120;2023-07-24T01:42:13;97324.75;;;25.59;55.45
17635;BME280;8936;49.010;12.120;2023-07-24T01:44:41;97323.59;;;25.27;56.06
17635;BME280;8936;49.010;12.120;2023-07-24T01:47:07;97294.44;;;25.71;55.18
17635;BME280;8936;49.010;12.120;2023-07-24T01:49:34;97271.09;;;25.85;54.93
17635;BME280;8936;49.010;12.120;2023-07-24T01:52:00;97282.50;;;25.90;54.90
17635;BME280;8936;49.010;12.120;2023-07-24T01:54:27;97282.16;;;25.99;54.56
17635;BME280;8936;49.010;12.120;2023-07-24T01:56:53;97279.03;;;26.00;54.50
17635;BME280;8936;49.010;12.120;2023-07-24T01:59:19;97277.25;;;25.71;54.83
17635;BME280;8936;49.010;12.120;2023-07-24T02:01:47;97287.19;;;25.16;55.84
17635;BME280;8936;49.010;12.120;2023-07-24T02:04:13;97286.59;;;25.33;55.82
17635;BME280;8936;49.010;12.120;2023-07-24T02:06:40;97274.09;;;25.72;55.28
17635;BME280;8936;49.010;12.120;2023-07-24T02:09:06;97268.06;;;25.97;54.66
17635;BME280;8936;49.010;12.120;2023-07-24T02:11:32;97294.53;;;25.45;55.14
17635;BME280;8936;49.010;12.120;2023-07-24T02:13:59;97314.97;;;25.55;55.23
17635;BME280;8936;49.010;12.120;2023-07-24T02:16:25;97316.94;;;25.58;54.98
17635;BME280;8936;49.010;12.120;2023-07-24T02:18:53;97316.34;;;25.42;55.27
17635;BME280;8936;49.010;12.120;2023-07-24T02:21:19;97295.06;;;24.91;56.34
17635;BME280;8936;49.010;12.120;2023-07-24T02:23:45;97266.69;;;24.69;56.75
17635;BME280;8936;49.010;12.120;2023-07-24T02:26:12;97262.03;;;24.73;57.17
17635;BME280;8936;49.010;12.120;2023-07-24T02:28:38;97259.47;;;24.84;57.09
17635;BME280;8936;49.010;12.120;2023-07-24T02:31:05;97270.25;;;25.40;55.92
17635;BME280;8936;49.010;12.120;2023-07-24T02:33:31;97266.31;;;25.71;55.17
17635;BME280;8936;49.010;12.120;2023-07-24T02:36:00;97268.38;;;25.88;54.41
17635;BME280;8936;49.010;12.120;2023-07-24T02:38:26;97263.59;;;25.78;54.52
17635;BME280;8936;49.010;12.120;2023-07-24T02:40:53;97260.75;;;25.64;54.63
17635;BME280;8936;49.010;12.120;2023-07-24T02:43:19;97252.69;;;25.41;55.00
17635;BME280;8936;49.010;12.120;2023-07-24T02:45:46;97258.19;;;25.45;55.00
17635;BME280;8936;49.010;12.120;2023-07-24T02:48:12;97253.66;;;25.56;55.08
17635;BME280;8936;49.010;12.120;2023-07-24T02:50:38;97258.94;;;25.78;54.46
17635;BME280;8936;49.010;12.120;2023-07-24T02:53:06;97253.63;;;26.00;54.23
17635;BME280;8936;49.010;12.120;2023-07-24T02:55:32;97250.66;;;26.15;53.72
17635;BME280;8936;49.010;12.120;2023-07-24T02:57:58;97235.47;;;26.25;53.22
17635;BME280;8936;49.010;12.120;2023-07-24T03:00:25;97236.28;;;26.29;53.16
17635;BME280;8936;49.010;12.120;2023-07-24T03:02:52;97232.00;;;26.35;53.10
17635;BME280;8936;49.010;12.120;2023-07-24T03:05:18;97225.38;;;26.36;53.21
17635;BME280;8936;49.010;12.120;2023-07-24T03:07:44;97223.03;;;26.38;53.15
17635;BME280;8936;49.010;12.120;2023-07-24T03:10:12;97211.31;;;26.41;53.24
17635;BME280;8936;49.010;12.120;2023-07-24T03:12:38;97203.88;;;26.38;53.22
17635;BME280;8936;49.010;12.120;2023-07-24T03:15:05;97208.16;;;26.36;53.17
17635;BME280;8936;49.010;12.120;2023-07-24T03:17:32;97200.34;;;26.38;53.22
17635;BME280;8936;49.010;12.120;2023-07-24T03:19:59;97185.09;;;26.40;53.26
17635;BME280;8936;49.010;12.120;2023-07-24T03:22:25;97197.25;;;26.43;52.94
17635;BME280;8936;49.010;12.120;2023-07-24T03:24:51;97189.38;;;26.34;53.11
17635;BME280;8936;49.010;12.120;2023-07-24T03:27:18;97186.22;;;26.28;53.28
17635;BME280;8936;49.010;12.120;2023-07-24T03:29:44;97193.28;;;26.33;53.23
17635;BME280;8936;49.010;12.120;2023-07-24T03:32:11;97197.97;;;26.33;53.28
17635;BME280;8936;49.010;12.120;2023-07-24T03:34:37;97197.22;;;26.36;53.22
17635;BME280;8936;49.010;12.120;2023-07-24T03:37:04;97198.78;;;26.37;53.16
17635;BME280;8936;49.010;12.120;2023-07-24T03:39:30;97198.00;;;26.36;53.14
17635;BME280;8936;49.010;12.120;2023-07-24T03:41:57;97192.88;;;26.31;53.01
17635;BME280;8936;49.010;12.120;2023-07-24T03:44:23;97204.19;;;26.26;53.43
17635;BME280;8936;49.010;12.120;2023-07-24T03:46:50;97203.44;;;26.29;53.15
17635;BME280;8936;49.010;12.120;2023-07-24T03:49:16;97225.34;;;26.33;52.85
17635;BME280;8936;49.010;12.120;2023-07-24T03:51:42;97225.72;;;26.31;52.89
17635;BME280;8936;49.010;12.120;2023-07-24T03:54:09;97237.38;;;26.17;52.99
17635;BME280;8936;49.010;12.120;2023-07-24T03:56:35;97245.88;;;26.05;53.17
17635;BME280;8936;49.010;12.120;2023-07-24T03:59:01;97259.56;;;26.05;53.18
17635;BME280;8936;49.010;12.120;2023-07-24T04:01:29;97285.94;;;25.84;53.66
17635;BME280;8936;49.010;12.120;2023-07-24T04:03:55;97311.44;;;25.54;54.02
17635;BME280;8936;49.010;12.120;2023-07-24T04:06:23;97323.22;;;25.29;54.36
17635;BME280;8936;49.010;12.120;2023-07-24T04:08:49;97320.13;;;25.30;54.45
17635;BME280;8936;49.010;12.120;2023-07-24T04:11:16;97306.06;;;25.32;55.20
17635;BME280;8936;49.010;12.120;2023-07-24T04:13:42;97279.88;;;25.27;55.16
17635;BME280;8936;49.010;12.120;2023-07-24T04:16:08;97251.53;;;24.76;57.72
17635;BME280;8936;49.010;12.120;2023-07-24T04:18:36;97221.19;;;23.98;61.06
17635;BME280;8936;49.010;12.120;2023-07-24T04:21:02;97155.09;;;22.91;70.46
17635;BME280;8936;49.010;12.120;2023-07-24T04:23:29;97099.63;;;22.19;85.09
17635;BME280;8936;49.010;12.120;2023-07-24T04:25:55;97103.78;;;22.32;87.96
17635;BME280;8936;49.010;12.120;2023-07-24T04:28:21;97123.81;;;22.24;89.96
17635;BME280;8936;49.010;12.120;2023-07-24T04:30:48;97104.84;;;21.74;98.41
17635;BME280;8936;49.010;12.120;2023-07-24T04:33:14;97056.53;;;21.32;100.00
17635;BME280;8936;49.010;12.120;2023-07-24T04:35:42;97053.06;;;21.51;100.00
17635;BME280;8936;49.010;12.120;2023-07-24T04:38:08;97098.78;;;21.80;100.00
17635;BME280;8936;49.010;12.120;2023-07-24T04:40:34;97143.88;;;23.38;83.28
17635;BME280;8936;49.010;12.120;2023-07-24T04:43:01;97125.50;;;23.12;88.32
17635;BME280;8936;49.010;12.120;2023-07-24T04:45:27;97126.50;;;22.63;95.31
17635;BME280;8936;49.010;12.120;2023-07-24T04:47:53;97131.28;;;22.46;98.12
17635;BME280;8936;49.010;12.120;2023-07-24T04:50:20;97129.09;;;22.17;100.00
17635;BME280;8936;49.010;12.120;2023-07-24T04:52:47;97119.72;;;21.80;100.00
17635;BME280;8936;49.010;12.120;2023-07-24T04:55:14;97136.59;;;23.23;89.95
17635;BME280;8936;49.010;12.120;2023-07-24T04:57:40;97140.63;;;23.78;81.93
17635;BME280;8936;49.010;12.120;2023-07-24T05:00:07;97138.09;;;23.66;86.56
17635;BME280;8936;49.010;12.120;2023-07-24T05:02:33;97145.66;;;22.66;97.18
17635;BME280;8936;49.010;12.120;2023-07-24T05:05:00;97132.03;;;22.47;100.00
17635;BME280;8936;49.010;12.120;2023-07-24T05:07:26;97147.06;;;23.67;86.71
17635;BME280;8936;49.010;12.120;2023-07-24T05:09:54;97160.09;;;24.33;79.61
17635;BME280;8936;49.010;12.120;2023-07-24T05:12:20;97142.78;;;23.92;86.54
17635;BME280;8936;49.010;12.120;2023-07-24T05:14:47;97145.00;;;22.53;99.45
17635;BME280;8936;49.010;12.120;2023-07-24T05:17:13;97136.97;;;22.03;100.00
17635;BME280;8936;49.010;12.120;2023-07-24T05:19:39;97143.88;;;22.54;100.00
17635;BME280;8936;49.010;12.120;2023-07-24T05:22:06;97141.28;;;22.62;99.11
17635;BME280;8936;49.010;12.120;2023-07-24T05:24:32;97149.09;;;22.82;95.93
17635;BME280;8936;49.010;12.120;2023-07-24T05:27:02;97132.97;;;22.35;100.00
17635;BME280;8936;49.010;12.120;2023-07-24T05:29:29;97138.66;;;21.76;100.00
17635;BME280;8936;49.010;12.120;2023-07-24T05:31:55;97131.53;;;22.22;100.00
17635;BME280;8936;49.010;12.120;2023-07-24T05:34:22;97134.53;;;22.75;97.59
17635;BME280;8936;49.010;12.120;2023-07-24T05:36:49;97126.81;;;22.57;100.00
17635;BME280;8936;49.010;12.120;2023-07-24T05:39:15;97118.25;;;22.97;95.81
17635;BME280;8936;49.010;12.120;2023-07-24T05:41:41;97102.91;;;22.28;100.00
17635;BME280;8936;49.010;12.120;2023-07-24T05:44:09;97096.75;;;23.15;96.00
17635;BME280;8936;49.010;12.120;2023-07-24T05:46:35;97100.97;;;23.84;88.42
17635;BME280;8936;49.010;12.120;2023-07-24T05:49:02;97099.19;;;23.20;94.55
17635;BME280;8936;49.010;12.120;2023-07-24T05:51:28;97091.38;;;22.73;97.92
17635;BME280;8936;49.010;12.120;2023-07-24T05:53:55;97089.19;;;22.82;98.34
17635;BME280;8936;49.010;12.120;2023-07-24T05:56:21;97089.66;;;22.46;100.00
17635;BME280;8936;49.010;12.120;2023-07-24T05:58:48;97101.84;;;22.52;100.00
17635;BME280;8936;49.010;12.120;2023-07-24T06:01:16;97097.47;;;22.47;100.00
17635;BME280;8936;49.010;12.120;2023-07-24T06:03:43;97090.34;;;23.49;91.38
17635;BME280;8936;49.010;12.120;2023-07-24T06:06:09;97087.44;;;23.16;95.92
17635;BME280;8936;49.010;12.120;2023-07-24T06:08:35;97090.53;;;22.92;98.53
17635;BME280;8936;49.010;12.120;2023-07-24T06:11:02;97089.44;;;22.96;99.68
17635;BME280;8936;49.010;12.120;2023-07-24T06:13:28;97093.44;;;23.25;96.21
17635;BME280;8936;49.010;12.120;2023-07-24T06:15:54;97079.69;;;23.18;96.42
17635;BME280;8936;49.010;12.120;2023-07-24T06:18:22;97079.66;;;22.92;98.56
17635;BME280;8936;49.010;12.120;2023-07-24T06:20:51;97065.41;;;22.37;100.00
17635;BME280;8936;49.010;12.120;2023-07-24T06:23:18;97074.41;;;22.60;100.00
17635;BME280;8936;49.010;12.120;2023-07-24T06:25:45;97078.09;;;22.72;100.00
17635;BME280;8936;49.010;12.120;2023-07-24T06:28:11;97075.06;;;22.96;99.76
17635;BME280;8936;49.010;12.120;2023-07-24T06:30:38;97078.19;;;22.98;100.00
17635;BME280;8936;49.010;12.120;2023-07-24T06:33:04;97092.16;;;23.19;97.41
17635;BME280;8936;49.010;12.120;2023-07-24T06:35:32;97084.06;;;24.31;86.96
17635;BME280;8936;49.010;12.120;2023-07-24T06:37:58;97065.25;;;23.93;90.99
17635;BME280;8936;49.010;12.120;2023-07-24T06:40:25;97075.84;;;23.98;90.37
17635;BME280;8936;49.010;12.120;2023-07-24T06:42:51;97083.03;;;23.83;91.90
17635;BME280;8936;49.010;12.120;2023-07-24T06:45:18;97074.81;;;23.53;93.88
17635;BME280;8936;49.010;12.120;2023-07-24T06:47:44;97052.91;;;23.46;96.36
17635;BME280;8936;49.010;12.120;2023-07-24T06:50:10;97058.97;;;23.36;97.65
17635;BME280;8936;49.010;12.120;2023-07-24T06:52:38;97071.84;;;23.62;96.17
17635;BME280;8936;49.010;12.120;2023-07-24T06:55:05;97072.16;;;23.34;97.51
17635;BME280;8936;49.010;12.120;2023-07-24T06:57:31;97068.88;;;22.99;100.00
17635;BME280;8936;49.010;12.120;2023-07-24T06:59:58;97066.25;;;23.06;100.00
17635;BME280;8936;49.010;12.120;2023-07-24T07:02:24;97067.31;;;22.98;100.00
17635;BME280;8936;49.010;12.120;2023-07-24T07:04:51;97078.69;;;23.52;99.08
17635;BME280;8936;49.010;12.120;2023-07-24T07:07:17;97090.66;;;23.44;99.68
17635;BME280;8936;49.010;12.120;2023-07-24T07:09:45;97088.41;;;23.76;96.81
17635;BME280;8936;49.010;12.120;2023-07-24T07:12:11;97084.66;;;23.61;100.00
17635;BME280;8936;49.010;12.120;2023-07-24T07:14:37;97077.88;;;23.48;100.00
17635;BME280;8936;49.010;12.120;2023-07-24T07:17:04;97108.81;;;23.89;98.69
17635;BME280;8936;49.010;12.120;2023-07-24T07:19:30;97121.16;;;24.36;93.21
17635;BME280;8936;49.010;12.120;2023-07-24T07:21:56;97111.13;;;23.87;100.00
17635;BME280;8936;49.010;12.120;2023-07-24T07:24:23;97102.47;;;23.06;100.00
17635;BME280;8936;49.010;12.120;2023-07-24T07:26:50;97084.00;;;22.96;100.00
17635;BME280;8936;49.010;12.120;2023-07-24T07:29:17;97066.94;;;22.99;100.00
17635;BME280;8936;49.010;12.120;2023-07-24T07:31:43;97065.91;;;22.85;100.00
17635;BME280;8936;49.010;12.120;2023-07-24T07:34:09;97087.00;;;23.37;100.00
17635;BME280;8936;49.010;12.120;2023-07-24T07:36:36;97102.34;;;23.22;100.00
17635;BME280;8936;49.010;12.120;2023-07-24T07:39:02;97097.78;;;23.30;100.00
17635;BME280;8936;49.010;12.120;2023-07-24T07:41:29;97112.56;;;24.34;99.21
17635;BME280;8936;49.010;12.120;2023-07-24T07:43:56;97114.56;;;23.81;100.00
17635;BME280;8936;49.010;12.120;2023-07-24T07:46:23;97123.81;;;24.29;99.45
17635;BME280;8936;49.010;12.120;2023-07-24T07:48:49;97127.59;;;24.50;96.31
17635;BME280;8936;49.010;12.120;2023-07-24T07:51:16;97151.28;;;25.13;92.08
17635;BME280;8936;49.010;12.120;2023-07-24T07:53:42;97169.38;;;25.24;90.82
17635;BME280;8936;49.010;12.120;2023-07-24T07:56:08;97204.31;;;25.45;89.59
17635;BME280;8936;49.010;12.120;2023-07-24T07:58:35;97207.00;;;25.42;90.62
17635;BME280;8936;49.010;12.120;2023-07-24T08:01:04;97216.09;;;25.49;89.26
17635;BME280;8936;49.010;12.120;2023-07-24T08:03:30;97229.41;;;25.54;90.05
17635;BME280;8936;49.010;12.120;2023-07-24T08:05:57;97223.59;;;25.56;89.94
17635;BME280;8936;49.010;12.120;2023-07-24T08:08:23;97222.00;;;25.55;91.13
17635;BME280;8936;49.010;12.120;2023-07-24T08:10:50;97211.69;;;25.41;93.63
17635;BME280;8936;49.010;12.120;2023-07-24T08:13:16;97222.22;;;25.39;92.54
17635;BME280;8936;49.010;12.120;2023-07-24T08:15:42;97228.84;;;25.38;94.31
17635;BME280;8936;49.010;12.120;2023-07-24T08:18:10;97226.56;;;25.47;94.39
17635;BME280;8936;49.010;12.120;2023-07-24T08:20:37;97236.34;;;25.48;94.52
17635;BME280;8936;49.010;12.120;2023-07-24T08:23:03;97242.97;;;25.47;98.10
17635;BME280;8936;49.010;12.120;2023-07-24T08:25:30;97242.66;;;25.49;100.00
17635;BME280;8936;49.010;12.120;2023-07-24T08:27:56;97256.75;;;25.54;100.00
17635;BME280;8936;49.010;12.120;2023-07-24T08:30:23;97255.09;;;25.46;100.00
17635;BME280;8936;49.010;12.120;2023-07-24T08:32:49;97254.38;;;25.49;100.00
17635;BME280;8936;49.010;12.120;2023-07-24T08:35:17;97249.50;;;25.36;100.00
17635;BME280;8936;49.010;12.120;2023-07-24T08:37:44;97240.94;;;25.00;100.00
17635;BME280;8936;49.010;12.120;2023-07-24T08:40:10;97241.81;;;24.78;100.00
17635;BME280;8936;49.010;12.120;2023-07-24T08:42:38;97250.72;;;25.05;100.00
17635;BME280;8936;49.010;12.120;2023-07-24T08:45:05;97241.44;;;25.13;100.00
17635;BME280;8936;49.010;12.120;2023-07-24T08:47:31;97238.00;;;25.19;100.00
17635;BME280;8936;49.010;12.120;2023-07-24T08:50:01;97234.81;;;24.81;100.00
17635;BME280;8936;49.010;12.120;2023-07-24T08:52:29;97219.03;;;24.67;100.00
17635;BME280;8936;49.010;12.120;2023-07-24T08:54:56;97203.75;;;24.92;100.00
17635;BME280;8936;49.010;12.120;2023-07-24T08:57:24;97194.16;;;24.72;100.00
17635;BME280;8936;49.010;12.120;2023-07-24T08:59:50;97193.53;;;24.86;100.00
17635;BME280;8936;49.010;12.120;2023-07-24T09:02:16;97181.69;;;24.75;100.00
17635;BME280;8936;49.010;12.120;2023-07-24T09:04:43;97191.03;;;25.07;100.00
17635;BME280;8936;49.010;12.120;2023-07-24T09:07:09;97205.97;;;25.16;100.00
17635;BME280;8936;49.010;12.120;2023-07-24T09:09:39;97185.38;;;25.26;100.00
17635;BME280;8936;49.010;12.120;2023-07-24T09:12:05;97179.03;;;25.15;100.00
17635;BME280;8936;49.010;12.120;2023-07-24T09:14:32;97158.81;;;25.23;100.00
17635;BME280;8936;49.010;12.120;2023-07-24T09:17:02;97144.69;;;25.17;100.00
17635;BME280;8936;49.010;12.120;2023-07-24T09:19:28;97133.69;;;24.73;100.00
17635;BME280;8936;49.010;12.120;2023-07-24T09:21:55;97121.69;;;24.15;100.00
17635;BME280;8936;49.010;12.120;2023-07-24T09:24:21;97090.25;;;23.42;100.00
17635;BME280;8936;49.010;12.120;2023-07-24T09:26:50;97121.56;;;23.55;100.00
17635;BME280;8936;49.010;12.120;2023-07-24T09:29:17;97122.97;;;23.46;100.00
17635;BME280;8936;49.010;12.120;2023-07-24T09:31:43;97123.28;;;23.18;100.00
17635;BME280;8936;49.010;12.120;2023-07-24T09:34:14;97120.84;;;23.13;100.00
17635;BME280;8936;49.010;12.120;2023-07-24T09:36:41;97133.97;;;22.85;100.00
17635;BME280;8936;49.010;12.120;2023-07-24T09:39:08;97121.53;;;22.84;100.00
17635;BME280;8936;49.010;12.120;2023-07-24T09:41:36;97117.34;;;22.90;100.00
17635;BME280;8936;49.010;12.120;2023-07-24T09:44:04;97110.16;;;23.24;100.00
17635;BME280;8936;49.010;12.120;2023-07-24T09:46:30;97107.00;;;22.99;100.00
17635;BME280;8936;49.010;12.120;2023-07-24T09:48:57;97097.84;;;22.88;100.00
17635;BME280;8936;49.010;12.120;2023-07-24T09:51:24;97091.91;;;23.50;100.00
17635;BME280;8936;49.010;12.120;2023-07-24T09:53:51;97086.41;;;24.03;100.00
17635;BME280;8936;49.010;12.120;2023-07-24T09:56:19;97075.00;;;24.20;100.00
17635;BME280;8936;49.010;12.120;2023-07-24T09:58:46;97049.41;;;24.32;100.00
17635;BME280;8936;49.010;12.120;2023-07-24T10:01:15;97047.47;;;24.36;100.00
17635;BME280;8936;49.010;12.120;2023-07-24T10:03:44;97033.03;;;24.32;100.00
17635;BME280;8936;49.010;12.120;2023-07-24T10:06:11;97025.63;;;24.36;100.00
17635;BME280;8936;49.010;12.120;2023-07-24T10:08:40;97031.41;;;24.27;100.00
17635;BME280;8936;49.010;12.120;2023-07-24T10:11:06;97034.22;;;24.34;100.00
17635;BME280;8936;49.010;12.120;2023-07-24T10:13:33;97040.88;;;24.07;100.00
17635;BME280;8936;49.010;12.120;2023-07-24T10:16:02;97034.63;;;24.36;100.00
17635;BME280;8936;49.010;12.120;2023-07-24T10:18:33;97019.81;;;24.37;100.00
17635;BME280;8936;49.010;12.120;2023-07-24T10:21:00;97010.53;;;24.45;100.00
17635;BME280;8936;49.010;12.120;2023-07-24T10:23:27;97021.53;;;24.52;100.00
17635;BME280;8936;49.010;12.120;2023-07-24T10:25:53;97022.06;;;24.28;100.00
17635;BME280;8936;49.010;12.120;2023-07-24T10:28:29;97019.34;;;24.68;100.00
17635;BME280;8936;49.010;12.120;2023-07-24T10:30:56;97022.41;;;25.04;100.00
17635;BME280;8936;49.010;12.120;2023-07-24T10:33:22;97023.34;;;25.22;100.00
17635;BME280;8936;49.010;12.120;2023-07-24T10:35:52;97026.97;;;25.37;100.00
17635;BME280;8936;49.010;12.120;2023-07-24T10:38:19;97023.56;;;25.54;100.00
17635;BME280;8936;49.010;12.120;2023-07-24T10:40:46;97041.22;;;25.63;100.00
17635;BME280;8936;49.010;12.120;2023-07-24T10:43:13;97040.97;;;25.90;100.00
17635;BME280;8936;49.010;12.120;2023-07-24T10:45:40;97042.84;;;25.78;99.81
17635;BME280;8936;49.010;12.120;2023-07-24T10:48:07;97031.53;;;25.80;100.00
17635;BME280;8936;49.010;12.120;2023-07-24T10:50:37;97034.22;;;25.73;100.00
17635;BME280;8936;49.010;12.120;2023-07-24T10:53:04;97027.19;;;25.72;100.00
17635;BME280;8936;49.010;12.120;2023-07-24T10:55:31;97033.53;;;25.87;98.64
17635;BME280;8936;49.010;12.120;2023-07-24T10:57:57;97030.38;;;25.85;96.19
17635;BME280;8936;49.010;12.120;2023-07-24T11:00:23;97037.38;;;25.78;93.40
17635;BME280;8936;49.010;12.120;2023-07-24T11:02:51;97028.81;;;25.80;92.40
17635;BME280;8936;49.010;12.120;2023-07-24T11:05:18;97020.69;;;25.98;92.56
17635;BME280;8936;49.010;12.120;2023-07-24T11:07:46;97015.59;;;25.93;91.19
17635;BME280;8936;49.010;12.120;2023-07-24T11:10:17;97019.53;;;26.02;89.55
17635;BME280;8936;49.010;12.120;2023-07-24T11:12:43;97019.91;;;26.01;89.74
17635;BME280;8936;49.010;12.120;2023-07-24T11:15:10;97011.03;;;26.18;88.88
17635;BME280;8936;49.010;12.120;2023-07-24T11:17:38;96995.75;;;26.17;89.04
17635;BME280;8936;49.010;12.120;2023-07-24T11:20:09;97003.19;;;26.20;88.81
17635;BME280;8936;49.010;12.120;2023-07-24T11:22:37;96996.13;;;26.15;89.49
17635;BME280;8936;49.010;12.120;2023-07-24T11:25:04;96985.22;;;26.26;88.73
17635;BME280;8936;49.010;12.120;2023-07-24T11:27:33;96982.53;;;26.37;88.73
17635;BME280;8936;49.010;12.120;2023-07-24T11:29:59;96989.94;;;26.29;88.60
17635;BME280;8936;49.010;12.120;2023-07-24T11:32:25;96993.50;;;26.58;86.00
17635;BME280;8936;49.010;12.120;2023-07-24T11:34:52;96991.91;;;26.39;86.67
17635;BME280;8936;49.010;12.120;2023-07-24T11:37:18;96995.81;;;26.38;85.60
17635;BME280;8936;49.010;12.120;2023-07-24T11:39:54;96993.09;;;26.49;85.31
17635;BME280;8936;49.010;12.120;2023-07-24T11:42:20;96982.53;;;26.37;86.13
17635;BME280;8936;49.010;12.120;2023-07-24T11:44:48;96987.25;;;26.54;85.45
17635;BME280;8936;49.010;12.120;2023-07-24T11:47:14;96992.69;;;26.40;86.71
17635;BME280;8936;49.010;12.120;2023-07-24T11:49:41;97000.13;;;26.39;87.09
17635;BME280;8936;49.010;12.120;2023-07-24T11:52:13;96995.44;;;26.40;87.06
17635;BME280;8936;49.010;12.120;2023-07-24T11:54:39;96986.44;;;26.43;87.24
17635;BME280;8936;49.010;12.120;2023-07-24T11:57:13;96990.75;;;26.51;88.32
17635;BME280;8936;49.010;12.120;2023-07-24T11:59:40;96982.53;;;26.44;89.21
17635;BME280;8936;49.010;12.120;2023-07-24T12:02:10;96996.63;;;26.53;88.97
17635;BME280;8936;49.010;12.120;2023-07-24T12:04:36;97001.31;;;26.52;89.76
17635;BME280;8936;49.010;12.120;2023-07-24T12:07:06;96999.38;;;26.46;90.33
17635;BME280;8936;49.010;12.120;2023-07-24T12:09:33;96988.41;;;26.42;91.47
17635;BME280;8936;49.010;12.120;2023-07-24T12:11:59;96982.94;;;26.42;91.71
17635;BME280;8936;49.010;12.120;2023-07-24T12:14:25;96980.19;;;26.49;91.01
17635;BME280;8936;49.010;12.120;2023-07-24T12:16:59;96990.34;;;26.56;92.57
17635;BME280;8936;49.010;12.120;2023-07-24T12:19:27;96986.84;;;26.62;96.39
17635;BME280;8936;49.010;12.120;2023-07-24T12:21:53;96977.06;;;26.54;96.71
17635;BME280;8936;49.010;12.120;2023-07-24T12:24:20;96976.69;;;26.66;97.69
17635;BME280;8936;49.010;12.120;2023-07-24T12:26:46;96985.69;;;26.70;95.76
17635;BME280;8936;49.010;12.120;2023-07-24T12:29:13;97000.16;;;26.71;95.66
17635;BME280;8936;49.010;12.120;2023-07-24T12:31:39;96993.91;;;26.70;96.71
17635;BME280;8936;49.010;12.120;2023-07-24T12:34:06;97000.94;;;26.75;97.77
17635;BME280;8936;49.010;12.120;2023-07-24T12:36:33;97004.06;;;26.66;97.30
17635;BME280;8936;49.010;12.120;2023-07-24T12:39:00;97003.31;;;26.83;96.48
17635;BME280;8936;49.010;12.120;2023-07-24T12:41:27;96999.81;;;26.87;96.20
17635;BME280;8936;49.010;12.120;2023-07-24T12:43:53;96997.84;;;26.83;96.28
17635;BME280;8936;49.010;12.120;2023-07-24T12:46:19;97017.81;;;26.80;96.68
17635;BME280;8936;49.010;12.120;2023-07-24T12:48:46;97049.88;;;26.76;97.71
17635;BME280;8936;49.010;12.120;2023-07-24T12:51:12;97100.31;;;26.61;98.69
17635;BME280;8936;49.010;12.120;2023-07-24T12:53:40;97123.34;;;26.50;100.00
17635;BME280;8936;49.010;12.120;2023-07-24T12:56:06;97121.38;;;26.40;100.00